sensor_id;sensor_type;location;lat;lon;timestamp;P1;durP1;ratioP1;P2;durP2;ratioP2
63350;SDS011;74263;51.058;17.040;2023-12-20T00:04:21;12.07;;;8.13;;
63350;SDS011;74263;51.058;17.040;2023-12-20T00:09:23;10.82;;;7.07;;
63350;SDS011;74263;51.058;17.040;2023-12-20T00:14:25;13.57;;;7.85;;
63350;SDS011;74263;51.058;17.040;2023-12-20T00:19:26;14.10;;;8.57;;
63350;SDS011;74263;51.058;17.040;2023-12-20T00:24:28;16.35;;;8.63;;
63350;SDS011;74263;51.058;17.040;2023-12-20T00:29:30;16.10;;;9.23;;
63350;SDS011;74263;51.058;17.040;2023-12-20T00:34:32;12.90;;;8.82;;
63350;SDS011;74263;51.058;17.040;2023-12-20T00:39:33;16.58;;;9.73;;
63350;SDS011;74263;51.058;17.040;2023-12-20T00:44:35;16.55;;;8.52;;
63350;SDS011;74263;51.058;17.040;2023-12-20T00:49:37;14.38;;;9.23;;
63350;SDS011;74263;51.058;17.040;2023-12-20T00:54:38;14.48;;;8.55;;
63350;SDS011;74263;51.058;17.040;2023-12-20T00:59:40;15.60;;;9.30;;
63350;SDS011;74263;51.058;17.040;2023-12-20T01:04:42;14.07;;;9.30;;
63350;SDS011;74263;51.058;17.040;2023-12-20T01:09:43;17.30;;;9.40;;
63350;SDS011;74263;51.058;17.040;2023-12-20T01:14:45;17.50;;;10.38;;
63350;SDS011;74263;51.058;17.040;2023-12-20T01:19:47;19.03;;;9.77;;
63350;SDS011;74263;51.058;17.040;2023-12-20T01:24:49;15.82;;;9.65;;
63350;SDS011;74263;51.058;17.040;2023-12-20T01:29:51;16.45;;;10.15;;
63350;SDS011;74263;51.058;17.040;2023-12-20T01:34:53;17.63;;;9.88;;
63350;SDS011;74263;51.058;17.040;2023-12-20T01:39:56;17.90;;;10.18;;
63350;SDS011;74263;51.058;17.040;2023-12-20T01:44:58;19.77;;;9.98;;
63350;SDS011;74263;51.058;17.040;2023-12-20T01:50:00;12.48;;;7.70;;
63350;SDS011;74263;51.058;17.040;2023-12-20T01:55:02;8.20;;;5.78;;
63350;SDS011;74263;51.058;17.040;2023-12-20T02:00:05;9.63;;;6.60;;
63350;SDS011;74263;51.058;17.040;2023-12-20T02:05:07;14.73;;;7.43;;
63350;SDS011;74263;51.058;17.040;2023-12-20T02:10:10;15.20;;;8.10;;
63350;SDS011;74263;51.058;17.040;2023-12-20T02:15:11;13.05;;;7.38;;
63350;SDS011;74263;51.058;17.040;2023-12-20T02:20:15;12.13;;;7.78;;
63350;SDS011;74263;51.058;17.040;2023-12-20T02:25:17;10.75;;;6.07;;
63350;SDS011;74263;51.058;17.040;2023-12-20T02:30:19;9.40;;;6.60;;
63350;SDS011;74263;51.058;17.040;2023-12-20T02:35:20;9.32;;;6.07;;
63350;SDS011;74263;51.058;17.040;2023-12-20T02:40:22;11.32;;;7.15;;
63350;SDS011;74263;51.058;17.040;2023-12-20T02:45:24;8.45;;;6.20;;
63350;SDS011;74263;51.058;17.040;2023-12-20T02:50:26;11.23;;;6.43;;
63350;SDS011;74263;51.058;17.040;2023-12-20T02:55:27;9.48;;;6.68;;
63350;SDS011;74263;51.058;17.040;2023-12-20T03:00:29;9.55;;;6.13;;
63350;SDS011;74263;51.058;17.040;2023-12-20T03:05:31;11.20;;;6.88;;
63350;SDS011;74263;51.058;17.040;2023-12-20T03:10:34;9.32;;;5.55;;
63350;SDS011;74263;51.058;17.040;2023-12-20T03:15:36;6.05;;;4.65;;
63350;SDS011;74263;51.058;17.040;2023-12-20T03:20:37;7.80;;;5.13;;
63350;SDS011;74263;51.058;17.040;2023-12-20T03:25:39;5.15;;;4.10;;
63350;SDS011;74263;51.058;17.040;2023-12-20T03:30:41;5.68;;;3.97;;
63350;SDS011;74263;51.058;17.040;2023-12-20T03:35:43;5.97;;;4.20;;
63350;SDS011;74263;51.058;17.040;2023-12-20T03:40:44;6.43;;;4.18;;
63350;SDS011;74263;51.058;17.040;2023-12-20T03:45:46;4.05;;;2.92;;
63350;SDS011;74263;51.058;17.040;2023-12-20T03:50:48;5.60;;;3.57;;
63350;SDS011;74263;51.058;17.040;2023-12-20T03:55:50;6.20;;;3.42;;
63350;SDS011;74263;51.058;17.040;2023-12-20T04:00:51;5.13;;;3.35;;
63350;SDS011;74263;51.058;17.040;2023-12-20T04:05:53;5.33;;;3.40;;
63350;SDS011;74263;51.058;17.040;2023-12-20T04:10:55;4.50;;;3.17;;
63350;SDS011;74263;51.058;17.040;2023-12-20T04:15:57;3.45;;;2.65;;
63350;SDS011;74263;51.058;17.040;2023-12-20T04:20:59;6.65;;;3.22;;
63350;SDS011;74263;51.058;17.040;2023-12-20T04:26:00;4.97;;;2.38;;
63350;SDS011;74263;51.058;17.040;2023-12-20T04:31:02;2.30;;;1.88;;
63350;SDS011;74263;51.058;17.040;2023-12-20T04:36:04;2.60;;;1.60;;
63350;SDS011;74263;51.058;17.040;2023-12-20T04:41:06;1.67;;;1.25;;
63350;SDS011;74263;51.058;17.040;2023-12-20T04:46:07;1.60;;;1.50;;
63350;SDS011;74263;51.058;17.040;2023-12-20T04:51:09;1.17;;;1.00;;
63350;SDS011;74263;51.058;17.040;2023-12-20T04:56:11;1.63;;;0.80;;
63350;SDS011;74263;51.058;17.040;2023-12-20T05:01:13;0.70;;;0.70;;
63350;SDS011;74263;51.058;17.040;2023-12-20T05:06:14;0.85;;;0.70;;
63350;SDS011;74263;51.058;17.040;2023-12-20T05:11:16;0.98;;;0.90;;
63350;SDS011;74263;51.058;17.040;2023-12-20T05:16:18;1.67;;;1.00;;
63350;SDS011;74263;51.058;17.040;2023-12-20T05:21:20;2.17;;;1.25;;
63350;SDS011;74263;51.058;17.040;2023-12-20T05:26:22;1.45;;;1.35;;
63350;SDS011;74263;51.058;17.040;2023-12-20T05:31:24;1.30;;;1.13;;
63350;SDS011;74263;51.058;17.040;2023-12-20T05:36:26;4.40;;;1.10;;
63350;SDS011;74263;51.058;17.040;2023-12-20T05:41:27;4.03;;;1.20;;
63350;SDS011;74263;51.058;17.040;2023-12-20T05:46:29;5.28;;;1.65;;
63350;SDS011;74263;51.058;17.040;2023-12-20T05:51:31;3.42;;;1.92;;
63350;SDS011;74263;51.058;17.040;2023-12-20T05:56:32;2.78;;;1.63;;
63350;SDS011;74263;51.058;17.040;2023-12-20T06:01:34;3.23;;;1.70;;
63350;SDS011;74263;51.058;17.040;2023-12-20T06:06:42;2.67;;;1.88;;
63350;SDS011;74263;51.058;17.040;2023-12-20T06:11:47;4.55;;;2.30;;
63350;SDS011;74263;51.058;17.040;2023-12-20T06:16:52;4.28;;;1.80;;
63350;SDS011;74263;51.058;17.040;2023-12-20T06:21:54;5.63;;;2.90;;
63350;SDS011;74263;51.058;17.040;2023-12-20T06:27:00;2.65;;;1.45;;
63350;SDS011;74263;51.058;17.040;2023-12-20T06:32:02;4.17;;;2.00;;
63350;SDS011;74263;51.058;17.040;2023-12-20T06:37:04;2.47;;;1.60;;
63350;SDS011;74263;51.058;17.040;2023-12-20T06:42:06;1.53;;;1.40;;
63350;SDS011;74263;51.058;17.040;2023-12-20T06:47:08;3.50;;;2.13;;
63350;SDS011;74263;51.058;17.040;2023-12-20T06:52:12;3.33;;;1.83;;
63350;SDS011;74263;51.058;17.040;2023-12-20T06:57:14;1.23;;;1.13;;
63350;SDS011;74263;51.058;17.040;2023-12-20T07:02:16;2.03;;;1.50;;
63350;SDS011;74263;51.058;17.040;2023-12-20T07:07:21;4.78;;;2.25;;
63350;SDS011;74263;51.058;17.040;2023-12-20T07:12:22;3.20;;;1.73;;
63350;SDS011;74263;51.058;17.040;2023-12-20T07:17:24;9.93;;;2.08;;
63350;SDS011;74263;51.058;17.040;2023-12-20T07:22:26;4.97;;;2.05;;
63350;SDS011;74263;51.058;17.040;2023-12-20T07:27:27;3.30;;;1.90;;
63350;SDS011;74263;51.058;17.040;2023-12-20T07:32:29;6.40;;;2.40;;
63350;SDS011;74263;51.058;17.040;2023-12-20T07:37:31;9.05;;;3.15;;
63350;SDS011;74263;51.058;17.040;2023-12-20T07:42:33;5.78;;;2.50;;
63350;SDS011;74263;51.058;17.040;2023-12-20T07:47:34;4.32;;;2.15;;
63350;SDS011;74263;51.058;17.040;2023-12-20T07:52:37;5.95;;;1.67;;
63350;SDS011;74263;51.058;17.040;2023-12-20T07:57:39;3.47;;;2.00;;
63350;SDS011;74263;51.058;17.040;2023-12-20T08:02:41;4.23;;;1.50;;
63350;SDS011;74263;51.058;17.040;2023-12-20T08:07:42;1.98;;;1.40;;
63350;SDS011;74263;51.058;17.040;2023-12-20T08:12:45;4.00;;;1.10;;
63350;SDS011;74263;51.058;17.040;2023-12-20T08:17:46;2.45;;;1.20;;
63350;SDS011;74263;51.058;17.040;2023-12-20T08:22:48;5.57;;;1.53;;
63350;SDS011;74263;51.058;17.040;2023-12-20T08:27:50;2.97;;;1.55;;
63350;SDS011;74263;51.058;17.040;2023-12-20T08:32:52;3.05;;;1.60;;
63350;SDS011;74263;51.058;17.040;2023-12-20T08:37:53;21.08;;;4.13;;
63350;SDS011;74263;51.058;17.040;2023-12-20T08:42:55;2.70;;;1.33;;
63350;SDS011;74263;51.058;17.040;2023-12-20T08:48:00;2.88;;;1.73;;
63350;SDS011;74263;51.058;17.040;2023-12-20T08:53:04;3.00;;;1.25;;
63350;SDS011;74263;51.058;17.040;2023-12-20T08:58:05;2.35;;;1.33;;
63350;SDS011;74263;51.058;17.040;2023-12-20T09:03:07;4.75;;;1.65;;
63350;SDS011;74263;51.058;17.040;2023-12-20T09:08:09;1.50;;;1.20;;
63350;SDS011;74263;51.058;17.040;2023-12-20T09:13:11;2.15;;;0.93;;
63350;SDS011;74263;51.058;17.040;2023-12-20T09:18:12;2.97;;;1.40;;
63350;SDS011;74263;51.058;17.040;2023-12-20T09:23:14;1.98;;;1.23;;
63350;SDS011;74263;51.058;17.040;2023-12-20T09:28:16;4.53;;;2.17;;
63350;SDS011;74263;51.058;17.040;2023-12-20T09:33:17;2.03;;;1.20;;
63350;SDS011;74263;51.058;17.040;2023-12-20T09:38:19;2.37;;;1.43;;
63350;SDS011;74263;51.058;17.040;2023-12-20T09:43:21;0.98;;;0.93;;
63350;SDS011;74263;51.058;17.040;2023-12-20T09:48:25;2.70;;;1.38;;
63350;SDS011;74263;51.058;17.040;2023-12-20T09:53:29;3.13;;;1.10;;
63350;SDS011;74263;51.058;17.040;2023-12-20T09:58:35;1.27;;;1.05;;
63350;SDS011;74263;51.058;17.040;2023-12-20T10:03:37;6.60;;;1.88;;
63350;SDS011;74263;51.058;17.040;2023-12-20T10:08:40;2.58;;;1.60;;
63350;SDS011;74263;51.058;17.040;2023-12-20T10:13:43;3.50;;;1.30;;
63350;SDS011;74263;51.058;17.040;2023-12-20T10:18:45;2.45;;;1.60;;
63350;SDS011;74263;51.058;17.040;2023-12-20T10:23:46;1.95;;;1.70;;
63350;SDS011;74263;51.058;17.040;2023-12-20T10:28:53;3.80;;;1.95;;
63350;SDS011;74263;51.058;17.040;2023-12-20T10:33:56;3.53;;;1.85;;
63350;SDS011;74263;51.058;17.040;2023-12-20T10:38:58;5.18;;;2.40;;
63350;SDS011;74263;51.058;17.040;2023-12-20T10:44:01;7.00;;;3.10;;
63350;SDS011;74263;51.058;17.040;2023-12-20T10:49:03;5.15;;;3.05;;
63350;SDS011;74263;51.058;17.040;2023-12-20T10:54:06;5.50;;;2.85;;
63350;SDS011;74263;51.058;17.040;2023-12-20T10:59:08;8.30;;;2.78;;
63350;SDS011;74263;51.058;17.040;2023-12-20T11:04:14;4.38;;;2.88;;
63350;SDS011;74263;51.058;17.040;2023-12-20T11:14:23;4.03;;;2.50;;
63350;SDS011;74263;51.058;17.040;2023-12-20T11:19:27;5.18;;;2.55;;
63350;SDS011;74263;51.058;17.040;2023-12-20T11:24:29;6.27;;;2.77;;
63350;SDS011;74263;51.058;17.040;2023-12-20T11:29:35;4.72;;;1.90;;
63350;SDS011;74263;51.058;17.040;2023-12-20T11:34:38;6.90;;;2.10;;
63350;SDS011;74263;51.058;17.040;2023-12-20T11:39:40;4.00;;;1.80;;
63350;SDS011;74263;51.058;17.040;2023-12-20T11:44:42;4.15;;;2.03;;
63350;SDS011;74263;51.058;17.040;2023-12-20T11:49:43;3.77;;;1.30;;
63350;SDS011;74263;51.058;17.040;2023-12-20T11:54:45;5.30;;;1.77;;
63350;SDS011;74263;51.058;17.040;2023-12-20T11:59:47;2.83;;;1.53;;
63350;SDS011;74263;51.058;17.040;2023-12-20T12:04:49;5.63;;;1.65;;
63350;SDS011;74263;51.058;17.040;2023-12-20T12:09:51;1.67;;;1.57;;
63350;SDS011;74263;51.058;17.040;2023-12-20T12:14:54;6.33;;;1.77;;
63350;SDS011;74263;51.058;17.040;2023-12-20T12:20:02;4.90;;;1.70;;
63350;SDS011;74263;51.058;17.040;2023-12-20T12:25:11;6.63;;;2.03;;
63350;SDS011;74263;51.058;17.040;2023-12-20T12:30:15;6.03;;;1.88;;
63350;SDS011;74263;51.058;17.040;2023-12-20T12:35:19;6.25;;;1.95;;
63350;SDS011;74263;51.058;17.040;2023-12-20T12:40:21;4.03;;;2.00;;
63350;SDS011;74263;51.058;17.040;2023-12-20T12:45:23;7.70;;;2.33;;
63350;SDS011;74263;51.058;17.040;2023-12-20T12:50:25;3.55;;;2.10;;
63350;SDS011;74263;51.058;17.040;2023-12-20T12:55:27;4.10;;;1.98;;
63350;SDS011;74263;51.058;17.040;2023-12-20T13:00:29;2.40;;;1.60;;
63350;SDS011;74263;51.058;17.040;2023-12-20T13:05:31;2.75;;;1.60;;
63350;SDS011;74263;51.058;17.040;2023-12-20T13:10:37;7.78;;;2.00;;
63350;SDS011;74263;51.058;17.040;2023-12-20T13:15:42;6.40;;;1.83;;
63350;SDS011;74263;51.058;17.040;2023-12-20T13:20:46;5.40;;;2.08;;
63350;SDS011;74263;51.058;17.040;2023-12-20T13:25:48;4.68;;;1.52;;
63350;SDS011;74263;51.058;17.040;2023-12-20T13:30:50;3.83;;;1.55;;
63350;SDS011;74263;51.058;17.040;2023-12-20T13:35:52;6.10;;;1.97;;
63350;SDS011;74263;51.058;17.040;2023-12-20T13:40:54;3.45;;;1.75;;
63350;SDS011;74263;51.058;17.040;2023-12-20T13:45:56;4.87;;;1.93;;
63350;SDS011;74263;51.058;17.040;2023-12-20T13:50:57;4.32;;;1.85;;
63350;SDS011;74263;51.058;17.040;2023-12-20T13:56:00;6.40;;;1.70;;
63350;SDS011;74263;51.058;17.040;2023-12-20T14:01:01;4.60;;;2.05;;
63350;SDS011;74263;51.058;17.040;2023-12-20T14:06:03;4.22;;;1.85;;
63350;SDS011;74263;51.058;17.040;2023-12-20T14:11:05;5.23;;;2.03;;
63350;SDS011;74263;51.058;17.040;2023-12-20T14:16:07;7.68;;;2.00;;
63350;SDS011;74263;51.058;17.040;2023-12-20T14:21:09;7.40;;;2.50;;
63350;SDS011;74263;51.058;17.040;2023-12-20T14:26:10;6.40;;;2.10;;
63350;SDS011;74263;51.058;17.040;2023-12-20T14:31:12;4.68;;;1.85;;
63350;SDS011;74263;51.058;17.040;2023-12-20T14:36:14;4.25;;;2.22;;
63350;SDS011;74263;51.058;17.040;2023-12-20T14:41:16;3.08;;;1.98;;
63350;SDS011;74263;51.058;17.040;2023-12-20T14:46:18;4.97;;;1.73;;
63350;SDS011;74263;51.058;17.040;2023-12-20T14:51:20;4.33;;;2.07;;
63350;SDS011;74263;51.058;17.040;2023-12-20T14:56:25;4.73;;;1.90;;
63350;SDS011;74263;51.058;17.040;2023-12-20T15:01:27;4.25;;;1.85;;
63350;SDS011;74263;51.058;17.040;2023-12-20T15:06:29;6.63;;;2.72;;
63350;SDS011;74263;51.058;17.040;2023-12-20T15:11:32;3.70;;;1.65;;
63350;SDS011;74263;51.058;17.040;2023-12-20T15:16:35;2.83;;;1.70;;
63350;SDS011;74263;51.058;17.040;2023-12-20T15:21:36;6.60;;;2.03;;
63350;SDS011;74263;51.058;17.040;2023-12-20T15:26:41;4.88;;;2.45;;
63350;SDS011;74263;51.058;17.040;2023-12-20T15:31:48;9.55;;;3.17;;
63350;SDS011;74263;51.058;17.040;2023-12-20T15:36:50;13.20;;;4.15;;
63350;SDS011;74263;51.058;17.040;2023-12-20T15:41:52;9.25;;;3.88;;
63350;SDS011;74263;51.058;17.040;2023-12-20T15:46:53;6.25;;;2.70;;
63350;SDS011;74263;51.058;17.040;2023-12-20T15:51:55;8.55;;;3.08;;
63350;SDS011;74263;51.058;17.040;2023-12-20T15:56:57;12.17;;;4.10;;
63350;SDS011;74263;51.058;17.040;2023-12-20T16:01:59;7.15;;;3.22;;
63350;SDS011;74263;51.058;17.040;2023-12-20T16:07:36;6.40;;;2.67;;
63350;SDS011;74263;51.058;17.040;2023-12-20T16:12:38;5.25;;;2.85;;
63350;SDS011;74263;51.058;17.040;2023-12-20T16:17:40;8.90;;;2.95;;
63350;SDS011;74263;51.058;17.040;2023-12-20T16:22:42;6.85;;;3.30;;
63350;SDS011;74263;51.058;17.040;2023-12-20T16:27:44;10.97;;;4.23;;
63350;SDS011;74263;51.058;17.040;2023-12-20T16:32:49;7.20;;;3.75;;
63350;SDS011;74263;51.058;17.040;2023-12-20T16:37:52;11.35;;;4.63;;
63350;SDS011;74263;51.058;17.040;2023-12-20T16:42:53;14.55;;;4.97;;
63350;SDS011;74263;51.058;17.040;2023-12-20T16:47:55;10.70;;;5.13;;
63350;SDS011;74263;51.058;17.040;2023-12-20T16:52:58;7.40;;;2.97;;
63350;SDS011;74263;51.058;17.040;2023-12-20T16:58:00;10.70;;;4.43;;
63350;SDS011;74263;51.058;17.040;2023-12-20T17:03:07;14.10;;;5.68;;
63350;SDS011;74263;51.058;17.040;2023-12-20T17:08:09;10.77;;;5.33;;
63350;SDS011;74263;51.058;17.040;2023-12-20T17:13:13;10.73;;;4.60;;
63350;SDS011;74263;51.058;17.040;2023-12-20T17:18:15;12.90;;;5.47;;
63350;SDS011;74263;51.058;17.040;2023-12-20T17:23:17;12.60;;;6.40;;
63350;SDS011;74263;51.058;17.040;2023-12-20T17:28:19;11.18;;;4.32;;
63350;SDS011;74263;51.058;17.040;2023-12-20T17:33:20;8.33;;;2.83;;
63350;SDS011;74263;51.058;17.040;2023-12-20T17:38:22;5.45;;;2.38;;
63350;SDS011;74263;51.058;17.040;2023-12-20T17:43:24;7.25;;;2.75;;
63350;SDS011;74263;51.058;17.040;2023-12-20T17:48:26;9.53;;;3.27;;
63350;SDS011;74263;51.058;17.040;2023-12-20T17:53:28;6.40;;;2.97;;
63350;SDS011;74263;51.058;17.040;2023-12-20T17:58:29;9.43;;;3.28;;
63350;SDS011;74263;51.058;17.040;2023-12-20T18:03:31;5.93;;;2.88;;
63350;SDS011;74263;51.058;17.040;2023-12-20T18:08:33;5.03;;;2.97;;
63350;SDS011;74263;51.058;17.040;2023-12-20T18:13:35;5.47;;;2.10;;
63350;SDS011;74263;51.058;17.040;2023-12-20T18:18:37;3.95;;;2.50;;
63350;SDS011;74263;51.058;17.040;2023-12-20T18:23:39;3.15;;;1.80;;
63350;SDS011;74263;51.058;17.040;2023-12-20T18:28:41;2.75;;;1.20;;
63350;SDS011;74263;51.058;17.040;2023-12-20T18:33:43;3.38;;;1.88;;
63350;SDS011;74263;51.058;17.040;2023-12-20T18:38:45;3.30;;;1.88;;
63350;SDS011;74263;51.058;17.040;2023-12-20T18:43:47;6.07;;;2.60;;
63350;SDS011;74263;51.058;17.040;2023-12-20T18:48:48;6.55;;;2.33;;
63350;SDS011;74263;51.058;17.040;2023-12-20T18:53:50;3.30;;;2.10;;
63350;SDS011;74263;51.058;17.040;2023-12-20T18:58:54;2.90;;;1.90;;
63350;SDS011;74263;51.058;17.040;2023-12-20T19:03:56;4.38;;;2.40;;
63350;SDS011;74263;51.058;17.040;2023-12-20T19:08:58;4.03;;;2.05;;
63350;SDS011;74263;51.058;17.040;2023-12-20T19:14:01;4.85;;;2.85;;
63350;SDS011;74263;51.058;17.040;2023-12-20T19:19:03;2.20;;;1.60;;
63350;SDS011;74263;51.058;17.040;2023-12-20T19:24:04;4.65;;;2.00;;
63350;SDS011;74263;51.058;17.040;2023-12-20T19:29:06;3.58;;;2.30;;
63350;SDS011;74263;51.058;17.040;2023-12-20T19:34:08;2.78;;;1.75;;
63350;SDS011;74263;51.058;17.040;2023-12-20T19:39:10;4.90;;;2.57;;
63350;SDS011;74263;51.058;17.040;2023-12-20T19:44:12;5.75;;;2.80;;
63350;SDS011;74263;51.058;17.040;2023-12-20T19:49:14;4.63;;;2.83;;
63350;SDS011;74263;51.058;17.040;2023-12-20T19:54:16;7.43;;;3.43;;
63350;SDS011;74263;51.058;17.040;2023-12-20T19:59:19;5.00;;;3.00;;
63350;SDS011;74263;51.058;17.040;2023-12-20T20:04:21;10.63;;;4.50;;
63350;SDS011;74263;51.058;17.040;2023-12-20T20:09:23;8.60;;;3.13;;
63350;SDS011;74263;51.058;17.040;2023-12-20T20:14:25;5.33;;;3.07;;
63350;SDS011;74263;51.058;17.040;2023-12-20T20:19:27;4.80;;;2.53;;
63350;SDS011;74263;51.058;17.040;2023-12-20T20:24:29;5.33;;;2.33;;
63350;SDS011;74263;51.058;17.040;2023-12-20T20:29:30;6.50;;;2.85;;
63350;SDS011;74263;51.058;17.040;2023-12-20T20:34:32;5.75;;;2.92;;
63350;SDS011;74263;51.058;17.040;2023-12-20T20:39:35;4.20;;;2.80;;
63350;SDS011;74263;51.058;17.040;2023-12-20T20:44:38;5.03;;;2.90;;
63350;SDS011;74263;51.058;17.040;2023-12-20T20:49:40;4.63;;;2.45;;
63350;SDS011;74263;51.058;17.040;2023-12-20T20:54:41;5.82;;;2.38;;
63350;SDS011;74263;51.058;17.040;2023-12-20T20:59:43;5.53;;;2.88;;
63350;SDS011;74263;51.058;17.040;2023-12-20T21:04:45;6.97;;;3.35;;
63350;SDS011;74263;51.058;17.040;2023-12-20T21:09:47;8.15;;;4.00;;
63350;SDS011;74263;51.058;17.040;2023-12-20T21:14:48;4.75;;;2.95;;
63350;SDS011;74263;51.058;17.040;2023-12-20T21:19:50;4.88;;;2.58;;
63350;SDS011;74263;51.058;17.040;2023-12-20T21:24:52;4.57;;;3.00;;
63350;SDS011;74263;51.058;17.040;2023-12-20T21:29:54;5.23;;;2.80;;
63350;SDS011;74263;51.058;17.040;2023-12-20T21:34:55;8.55;;;3.60;;
63350;SDS011;74263;51.058;17.040;2023-12-20T21:39:57;5.30;;;3.07;;
63350;SDS011;74263;51.058;17.040;2023-12-20T21:45:01;8.02;;;2.72;;
63350;SDS011;74263;51.058;17.040;2023-12-20T21:50:02;4.85;;;2.53;;
63350;SDS011;74263;51.058;17.040;2023-12-20T21:55:05;5.40;;;2.67;;
63350;SDS011;74263;51.058;17.040;2023-12-20T22:00:07;10.60;;;2.70;;
63350;SDS011;74263;51.058;17.040;2023-12-20T22:05:09;6.40;;;3.08;;
63350;SDS011;74263;51.058;17.040;2023-12-20T22:10:11;3.95;;;2.65;;
63350;SDS011;74263;51.058;17.040;2023-12-20T22:15:12;4.88;;;2.85;;
63350;SDS011;74263;51.058;17.040;2023-12-20T22:20:14;4.05;;;2.17;;
63350;SDS011;74263;51.058;17.040;2023-12-20T22:25:16;5.28;;;2.38;;
63350;SDS011;74263;51.058;17.040;2023-12-20T22:30:18;2.13;;;1.92;;
63350;SDS011;74263;51.058;17.040;2023-12-20T22:35:19;3.13;;;1.98;;
63350;SDS011;74263;51.058;17.040;2023-12-20T22:40:21;2.60;;;1.48;;
63350;SDS011;74263;51.058;17.040;2023-12-20T22:45:23;3.40;;;1.45;;
63350;SDS011;74263;51.058;17.040;2023-12-20T22:50:24;2.38;;;1.70;;
63350;SDS011;74263;51.058;17.040;2023-12-20T22:55:26;6.85;;;2.00;;
63350;SDS011;74263;51.058;17.040;2023-12-20T23:00:28;6.53;;;2.60;;
63350;SDS011;74263;51.058;17.040;2023-12-20T23:05:30;2.95;;;1.65;;
63350;SDS011;74263;51.058;17.040;2023-12-20T23:10:31;4.78;;;1.42;;
63350;SDS011;74263;51.058;17.040;2023-12-20T23:15:33;4.03;;;1.10;;
63350;SDS011;74263;51.058;17.040;2023-12-20T23:20:35;3.80;;;1.50;;
63350;SDS011;74263;51.058;17.040;2023-12-20T23:25:37;3.80;;;1.45;;
63350;SDS011;74263;51.058;17.040;2023-12-20T23:30:38;2.30;;;1.20;;
63350;SDS011;74263;51.058;17.040;2023-12-20T23:35:40;3.40;;;1.67;;
63350;SDS011;74263;51.058;17.040;2023-12-20T23:40:42;4.38;;;1.58;;
63350;SDS011;74263;51.058;17.040;2023-12-20T23:45:43;4.40;;;1.13;;
63350;SDS011;74263;51.058;17.040;2023-12-20T23:50:45;4.28;;;1.70;;
63350;SDS011;74263;51.058;17.040;2023-12-20T23:55:47;4.65;;;2.15;;
